Time;durP1;ratioP1;P1;durP2;ratioP2;P2;SDS_P1;SDS_P2;PMS_P1;PMS_P2;Temp;Humidity;BMP_temperature;BMP_pressure;BME280_temperature;BME280_humidity;BME280_pressure;Samples;Min_cycle;Max_cycle;Signal;HPM_P1;HPM_P2
2022/11/25 00:01:05;;;;;;;13.57;1.90;;;6.00;99.90;;;;;;5080478;28;20101;-89
2022/11/25 00:03:32;;;;;;;12.00;2.75;;;6.00;99.90;;;;;;5096829;28;20044;-88
2022/11/25 00:06:20;;;;;;;11.60;3.00;;;6.10;99.90;;;;;;5097027;28;20048;-89
2022/11/25 00:08:49;;;;;;;7.03;2.20;;;6.10;99.90;;;;;;5096682;28;20040;-88
2022/11/25 00:11:17;;;;;;;12.40;2.45;;;6.10;99.90;;;;;;5096627;28;20046;-88
2022/11/25 00:13:45;;;;;;;11.23;2.95;;;6.20;99.90;;;;;;5080216;28;20519;-88
2022/11/25 00:16:15;;;;;;;7.88;2.20;;;6.20;99.90;;;;;;5113321;28;20050;-85
2022/11/25 00:18:47;;;;;;;12.65;2.35;;;6.20;99.90;;;;;;5096523;28;20040;-88
2022/11/25 00:21:17;;;;;;;10.13;2.17;;;6.20;99.90;;;;;;5113268;28;20059;-88
2022/11/25 00:23:49;;;;;;;9.57;2.42;;;6.20;99.90;;;;;;5096655;28;20449;-88
2022/11/25 00:26:16;;;;;;;9.73;2.03;;;6.20;99.90;;;;;;5096929;28;20056;-88
2022/11/25 00:28:45;;;;;;;10.63;2.40;;;6.20;99.90;;;;;;5079568;28;20041;-88
2022/11/25 00:31:26;;;;;;;9.73;2.30;;;6.30;99.90;;;;;;5096458;28;20098;-87
2022/11/25 00:33:53;;;;;;;7.63;1.95;;;6.30;99.90;;;;;;5096415;28;20082;-88
2022/11/25 00:36:31;;;;;;;6.25;2.30;;;6.40;99.90;;;;;;5096150;28;20079;-87
2022/11/25 00:39:04;;;;;;;9.27;2.38;;;6.40;99.90;;;;;;5096155;28;20491;-88
2022/11/25 00:44:36;;;;;;;13.93;2.83;;;6.40;99.90;;;;;;5098759;28;20048;-88
2022/11/25 00:47:11;;;;;;;8.70;2.10;;;6.90;99.90;;;;;;5081992;28;20048;-88
2022/11/25 00:49:39;;;;;;;7.63;2.33;;;6.50;99.90;;;;;;5096227;28;20185;-88
2022/11/25 00:52:06;;;;;;;5.32;1.73;;;6.40;99.90;;;;;;5079500;28;20059;-88
2022/11/25 00:54:34;;;;;;;10.48;2.38;;;6.50;99.90;;;;;;5096025;28;20043;-88
2022/11/25 00:57:00;;;;;;;9.38;2.05;;;6.50;99.90;;;;;;5112744;28;20050;-88
2022/11/25 00:59:27;;;;;;;6.57;2.10;;;6.50;99.90;;;;;;5079313;28;20471;-88
2022/11/25 01:01:55;;;;;;;7.30;2.33;;;6.50;99.90;;;;;;5079161;28;20040;-88
2022/11/25 01:04:22;;;;;;;10.10;2.53;;;6.50;99.90;;;;;;5079110;28;20105;-88
2022/11/25 01:06:49;;;;;;;7.15;1.85;;;6.50;99.90;;;;;;5095543;28;20123;-88
2022/11/25 01:09:15;;;;;;;10.23;3.13;;;6.50;99.90;;;;;;5079328;28;20075;-89
2022/11/25 01:11:42;;;;;;;10.40;2.50;;;6.50;99.90;;;;;;5062013;28;20083;-88
2022/11/25 01:14:09;;;;;;;14.82;2.53;;;6.50;99.90;;;;;;5062528;28;20046;-88
2022/11/25 01:16:36;;;;;;;9.77;2.15;;;6.50;99.90;;;;;;5079231;28;20040;-88
2022/11/25 01:19:03;;;;;;;12.88;2.72;;;6.50;99.90;;;;;;5079230;28;20139;-88
2022/11/25 01:21:32;;;;;;;7.72;2.30;;;6.60;99.90;;;;;;5095740;28;20055;-89
2022/11/25 01:24:00;;;;;;;8.88;2.03;;;6.60;99.90;;;;;;5095805;28;20463;-88
2022/11/25 01:26:27;;;;;;;7.63;1.90;;;7.60;99.90;;;;;;5095839;28;20036;-88
2022/11/25 01:28:57;;;;;;;8.07;2.10;;;6.60;99.90;;;;;;5079155;28;20055;-88
2022/11/25 01:31:25;;;;;;;8.80;1.95;;;6.50;99.90;;;;;;5095084;28;20503;-84
2022/11/25 01:34:01;;;;;;;6.68;1.98;;;6.60;99.90;;;;;;5095415;28;20502;-88
2022/11/25 01:36:29;;;;;;;5.47;2.10;;;6.60;99.90;;;;;;5094835;28;20043;-88
2022/11/25 01:38:58;;;;;;;5.28;1.65;;;6.60;99.90;;;;;;5094991;28;20082;-88
2022/11/25 01:41:27;;;;;;;8.25;1.98;;;6.60;99.90;;;;;;5095135;28;20055;-88
2022/11/25 01:44:08;;;;;;;16.63;2.10;;;6.60;99.90;;;;;;5094921;28;20039;-87
2022/11/25 01:47:05;;;;;;;7.03;1.90;;;6.60;99.90;;;;;;5094514;28;20047;-88
2022/11/25 01:49:44;;;;;;;6.70;2.00;;;6.60;99.90;;;;;;5094958;28;20074;-88
2022/11/25 01:52:21;;;;;;;8.15;1.95;;;6.60;99.90;;;;;;5094823;28;20044;-88
2022/11/25 01:55:26;;;;;;;14.57;2.00;;;6.60;99.90;;;;;;5094359;28;20040;-87
2022/11/25 01:57:58;;;;;;;10.07;2.65;;;6.50;99.90;;;;;;5069332;28;20076;-88
2022/11/25 02:00:25;;;;;;;14.13;2.08;;;6.50;99.90;;;;;;5074842;28;20032;-88
2022/11/25 02:02:56;;;;;;;7.22;1.60;;;6.60;99.90;;;;;;5059237;28;20123;-88
2022/11/25 02:05:37;;;;;;;17.73;1.98;;;6.50;99.90;;;;;;5074602;28;20056;-88
2022/11/25 02:08:06;;;;;;;16.10;1.85;;;6.60;99.90;;;;;;5074756;28;20102;-88
2022/11/25 02:10:34;;;;;;;8.95;1.98;;;6.80;99.90;;;;;;5074400;28;20047;-88
2022/11/25 02:13:01;;;;;;;9.57;1.88;;;6.60;99.90;;;;;;5058081;28;20044;-87
2022/11/25 02:15:29;;;;;;;7.85;1.90;;;6.60;99.90;;;;;;5057845;28;20174;-88
2022/11/25 02:17:56;;;;;;;9.77;1.77;;;6.60;99.90;;;;;;5075820;28;20097;-87
2022/11/25 02:20:23;;;;;;;12.68;2.40;;;6.60;99.90;;;;;;5094491;28;20460;-87
2022/11/25 02:23:15;;;;;;;9.55;1.85;;;6.60;99.90;;;;;;5094246;28;20082;-88
2022/11/25 02:25:43;;;;;;;7.38;1.98;;;6.60;99.90;;;;;;5093826;28;20040;-88
2022/11/25 02:28:17;;;;;;;8.30;1.98;;;6.70;99.90;;;;;;5077691;28;20396;-88
2022/11/25 02:30:45;;;;;;;14.20;2.10;;;6.70;99.90;;;;;;5094012;28;20400;-88
2022/11/25 02:33:12;;;;;;;6.13;1.80;;;6.70;99.90;;;;;;5077575;28;20036;-88
2022/11/25 02:35:51;;;;;;;8.23;1.90;;;6.70;99.90;;;;;;5093818;28;20040;-88
2022/11/25 02:38:46;;;;;;;8.75;2.10;;;6.70;99.90;;;;;;5093860;28;20071;-88
2022/11/25 02:41:37;;;;;;;7.25;2.20;;;6.70;99.90;;;;;;5093663;28;20441;-87
2022/11/25 02:44:04;;;;;;;10.15;2.20;;;6.70;99.90;;;;;;5093980;28;20036;-88
2022/11/25 02:46:31;;;;;;;10.75;2.05;;;7.10;99.90;;;;;;5077215;28;20028;-88
2022/11/25 02:48:58;;;;;;;7.80;2.17;;;6.70;99.90;;;;;;5093387;28;20552;-87
2022/11/25 02:51:28;;;;;;;5.95;1.80;;;6.70;99.90;;;;;;5093468;28;20168;-88
2022/11/25 02:53:55;;;;;;;13.70;2.10;;;7.30;99.90;;;;;;5093272;28;20398;-88
2022/11/25 02:56:25;;;;;;;14.68;2.25;;;6.60;99.90;;;;;;5094066;28;20136;-88
2022/11/25 02:58:52;;;;;;;10.07;1.80;;;6.60;99.90;;;;;;5093028;28;20093;-87
2022/11/25 03:01:19;;;;;;;9.90;2.70;;;7.10;99.90;;;;;;5076719;28;20517;-87
2022/11/25 03:03:46;;;;;;;9.13;2.00;;;7.30;99.90;;;;;;5093030;28;20385;-87
2022/11/25 03:06:13;;;;;;;11.68;2.33;;;6.60;99.90;;;;;;5075833;28;20046;-87
2022/11/25 03:08:40;;;;;;;10.93;2.15;;;6.60;99.90;;;;;;5093421;28;20040;-87
2022/11/25 03:11:06;;;;;;;10.30;2.13;;;6.60;99.90;;;;;;5076855;28;20042;-88
2022/11/25 03:13:33;;;;;;;13.82;2.20;;;6.60;99.90;;;;;;5093335;28;20377;-87
2022/11/25 03:16:00;;;;;;;9.50;2.20;;;6.50;99.90;;;;;;5093699;28;20131;-88
2022/11/25 03:18:26;;;;;;;11.20;2.10;;;6.60;99.90;;;;;;5093450;28;20049;-88
2022/11/25 03:20:54;;;;;;;12.10;2.30;;;6.50;99.90;;;;;;5060283;28;20565;-87
2022/11/25 03:23:21;;;;;;;9.48;2.10;;;6.50;99.90;;;;;;5110255;28;20048;-88
2022/11/25 03:25:48;;;;;;;8.18;1.85;;;6.50;99.90;;;;;;5093305;28;20036;-88
2022/11/25 03:28:15;;;;;;;9.32;2.33;;;6.50;99.90;;;;;;5093384;28;20063;-88
2022/11/25 03:30:42;;;;;;;11.38;3.20;;;6.50;99.90;;;;;;5076773;28;20037;-85
2022/11/25 03:33:09;;;;;;;15.18;2.35;;;6.80;99.90;;;;;;5076940;28;20089;-88
2022/11/25 03:35:36;;;;;;;8.73;1.80;;;6.50;99.90;;;;;;5076814;28;20051;-88
2022/11/25 03:38:02;;;;;;;8.15;2.00;;;6.50;99.90;;;;;;5076068;28;20044;-88
2022/11/25 03:40:29;;;;;;;13.65;2.08;;;6.90;99.90;;;;;;5093205;28;20040;-87
2022/11/25 03:42:56;;;;;;;9.00;2.65;;;6.60;99.90;;;;;;5076661;28;20044;-88
2022/11/25 03:45:22;;;;;;;10.88;2.00;;;6.50;99.90;;;;;;5109970;28;20044;-89
2022/11/25 03:47:49;;;;;;;11.55;2.50;;;6.50;99.90;;;;;;5060213;28;20040;-89
2022/11/25 03:50:16;;;;;;;9.57;2.47;;;6.50;99.90;;;;;;5076276;28;20043;-88
2022/11/25 03:52:43;;;;;;;11.65;2.63;;;6.50;99.90;;;;;;5076545;28;20177;-87
2022/11/25 03:55:11;;;;;;;9.18;2.30;;;6.60;99.90;;;;;;5092836;28;20052;-87
2022/11/25 03:57:38;;;;;;;8.77;2.30;;;6.50;99.90;;;;;;5109831;28;20043;-87
2022/11/25 04:00:06;;;;;;;13.63;2.63;;;6.50;99.90;;;;;;5092804;28;20046;-87
2022/11/25 04:02:33;;;;;;;12.68;2.60;;;6.50;99.90;;;;;;5092963;28;20449;-88
2022/11/25 04:05:00;;;;;;;12.52;2.45;;;6.50;99.90;;;;;;5059537;28;20048;-88
2022/11/25 04:07:26;;;;;;;10.27;2.60;;;6.60;99.90;;;;;;5059818;28;20035;-88
2022/11/25 04:09:53;;;;;;;11.88;2.67;;;6.60;99.90;;;;;;5092679;28;20036;-88
2022/11/25 04:12:52;;;;;;;8.77;2.13;;;6.60;99.90;;;;;;5059957;28;20765;-87
2022/11/25 04:15:13;;;;;;;9.70;2.33;;;6.50;99.90;;;;;;5081908;28;20051;-87
2022/11/25 04:17:40;;;;;;;9.75;2.28;;;6.50;99.90;;;;;;5094967;28;20082;-89
2022/11/25 04:20:08;;;;;;;11.82;2.03;;;6.60;99.90;;;;;;5080336;28;20040;-88
2022/11/25 04:22:35;;;;;;;8.30;2.45;;;6.60;99.90;;;;;;5096905;28;20127;-88
2022/11/25 04:25:02;;;;;;;11.85;2.65;;;6.60;99.90;;;;;;5079866;28;20079;-88
2022/11/25 04:27:29;;;;;;;9.52;2.50;;;6.60;99.90;;;;;;5096104;28;20078;-88
2022/11/25 04:29:55;;;;;;;12.80;2.67;;;6.10;99.90;;;;;;5063478;28;20028;-87
2022/11/25 04:32:22;;;;;;;8.63;2.20;;;6.60;99.90;;;;;;5063388;28;20051;-88
2022/11/25 04:34:49;;;;;;;9.52;2.33;;;6.60;99.90;;;;;;5096417;28;20092;-88
2022/11/25 04:37:16;;;;;;;10.52;2.25;;;6.60;99.90;;;;;;5063423;28;20062;-88
2022/11/25 04:39:42;;;;;;;8.90;2.28;;;6.60;99.90;;;;;;5112858;28;20176;-88
2022/11/25 04:44:54;;;;;;;8.95;1.92;;;6.60;99.90;;;;;;5098264;28;20048;-87
2022/11/25 04:47:21;;;;;;;14.80;2.40;;;6.60;99.90;;;;;;5079269;28;20547;-88
2022/11/25 04:49:47;;;;;;;10.68;2.53;;;6.90;99.90;;;;;;5063151;28;20032;-88
2022/11/25 04:52:14;;;;;;;14.95;2.75;;;6.60;99.90;;;;;;5095751;28;20144;-88
2022/11/25 04:54:41;;;;;;;8.45;2.33;;;6.60;99.90;;;;;;5079655;28;20040;-88
2022/11/25 04:57:12;;;;;;;10.45;3.90;;;6.60;99.90;;;;;;5063102;28;20035;-87
2022/11/25 04:59:39;;;;;;;9.00;2.50;;;6.60;99.90;;;;;;5095970;28;20123;-88
2022/11/25 05:02:21;;;;;;;13.13;2.40;;;6.60;99.90;;;;;;5079402;28;20126;-88
2022/11/25 05:04:50;;;;;;;7.15;2.13;;;6.70;99.90;;;;;;5095920;28;20036;-87
2022/11/25 05:07:18;;;;;;;10.30;2.88;;;6.70;99.90;;;;;;5112253;28;20436;-88
2022/11/25 05:09:45;;;;;;;11.05;2.40;;;6.60;99.90;;;;;;5095889;28;20411;-88
2022/11/25 05:12:20;;;;;;;7.65;2.30;;;6.70;99.90;;;;;;5095498;28;20462;-88
2022/11/25 05:14:48;;;;;;;7.85;2.72;;;6.70;99.90;;;;;;5095562;28;20079;-88
2022/11/25 05:17:18;;;;;;;12.13;2.95;;;6.80;99.90;;;;;;5078965;28;20068;-88
2022/11/25 05:19:45;;;;;;;11.95;2.65;;;6.70;99.90;;;;;;5095001;28;20560;-88
2022/11/25 05:22:18;;;;;;;13.32;2.80;;;6.60;99.90;;;;;;5079009;28;20059;-87
2022/11/25 05:24:44;;;;;;;9.25;2.55;;;6.70;99.90;;;;;;5095109;28;20048;-87
2022/11/25 05:27:11;;;;;;;8.35;2.22;;;6.70;99.90;;;;;;5095150;28;20085;-88
2022/11/25 05:29:38;;;;;;;8.38;2.67;;;6.70;99.90;;;;;;5077983;28;20032;-88
2022/11/25 05:32:06;;;;;;;10.20;2.60;;;6.70;99.90;;;;;;5095060;28;20032;-88
2022/11/25 05:34:32;;;;;;;6.10;2.38;;;6.70;99.90;;;;;;5078290;28;20066;-88
2022/11/25 05:36:59;;;;;;;11.07;2.88;;;6.70;99.90;;;;;;5078248;28;20040;-88
2022/11/25 05:39:26;;;;;;;9.98;2.17;;;6.70;99.90;;;;;;5078444;28;20039;-88
2022/11/25 05:41:52;;;;;;;10.98;2.55;;;6.70;99.90;;;;;;5078218;28;20085;-88
2022/11/25 05:44:19;;;;;;;10.65;2.47;;;6.70;99.90;;;;;;5094638;28;20131;-88
2022/11/25 05:46:47;;;;;;;13.07;2.90;;;6.70;99.90;;;;;;5095062;28;20047;-88
2022/11/25 05:49:15;;;;;;;9.20;2.25;;;6.70;99.90;;;;;;5078322;28;20036;-88
2022/11/25 05:51:41;;;;;;;6.60;2.50;;;6.70;99.90;;;;;;5094758;28;20096;-87
2022/11/25 05:54:08;;;;;;;13.27;3.20;;;6.70;99.90;;;;;;5077936;28;20040;-88
2022/11/25 05:56:35;;;;;;;8.32;2.33;;;6.80;99.90;;;;;;5061777;28;20050;-88
2022/11/25 05:59:03;;;;;;;11.73;2.42;;;6.70;99.90;;;;;;5094511;28;20176;-87
2022/11/25 06:01:30;;;;;;;8.07;2.25;;;6.80;99.90;;;;;;5094599;28;20093;-88
2022/11/25 06:04:02;;;;;;;8.55;2.65;;;6.70;99.90;;;;;;5094644;28;20065;-88
2022/11/25 06:06:29;;;;;;;7.22;2.25;;;6.70;99.90;;;;;;5094490;28;20040;-88
2022/11/25 06:08:56;;;;;;;9.63;2.85;;;6.70;99.90;;;;;;5094557;28;20059;-87
2022/11/25 06:11:24;;;;;;;12.88;3.20;;;6.80;99.90;;;;;;5077834;28;20035;-88
2022/11/25 06:13:51;;;;;;;15.95;2.67;;;6.80;99.90;;;;;;5094450;28;20526;-87
2022/11/25 06:16:20;;;;;;;10.13;2.75;;;6.80;99.90;;;;;;5094004;28;20044;-88
2022/11/25 06:18:47;;;;;;;9.40;2.75;;;6.80;99.90;;;;;;5094376;28;20047;-88
2022/11/25 06:21:14;;;;;;;11.10;2.70;;;6.80;99.90;;;;;;5077096;28;20127;-88
2022/11/25 06:23:44;;;;;;;16.67;3.17;;;6.80;99.90;;;;;;5094285;28;20036;-88
2022/11/25 06:26:21;;;;;;;10.52;3.05;;;6.80;99.90;;;;;;5094061;28;20079;-87
2022/11/25 06:28:51;;;;;;;8.35;3.05;;;7.10;99.90;;;;;;5094262;28;20039;-87
2022/11/25 06:31:20;;;;;;;7.82;2.78;;;6.80;99.90;;;;;;5093870;28;20050;-88
2022/11/25 06:33:49;;;;;;;10.32;2.92;;;7.10;99.90;;;;;;5093709;28;20131;-87
2022/11/25 06:36:17;;;;;;;7.68;2.75;;;6.90;99.90;;;;;;5077691;28;20096;-87
2022/11/25 06:38:51;;;;;;;7.10;2.90;;;6.80;99.90;;;;;;5093906;28;20496;-88
2022/11/25 06:41:19;;;;;;;14.35;2.97;;;6.90;99.90;;;;;;5077881;28;20491;-87
2022/11/25 06:43:45;;;;;;;13.80;3.05;;;6.90;99.90;;;;;;5094349;28;20047;-88
2022/11/25 06:46:15;;;;;;;12.13;2.78;;;6.90;99.90;;;;;;5078091;28;20101;-87
2022/11/25 06:48:42;;;;;;;16.05;3.50;;;6.90;99.90;;;;;;5093932;28;20093;-87
2022/11/25 06:51:13;;;;;;;12.05;3.40;;;6.90;99.90;;;;;;5060722;28;20032;-88
2022/11/25 06:53:40;;;;;;;14.13;2.70;;;6.90;99.90;;;;;;5093471;28;20055;-88
2022/11/25 06:56:12;;;;;;;9.75;2.80;;;7.00;99.90;;;;;;5077084;28;20143;-87
2022/11/25 06:58:40;;;;;;;13.43;3.70;;;6.90;99.90;;;;;;5093678;28;20036;-87
2022/11/25 07:01:14;;;;;;;10.57;2.70;;;6.90;99.90;;;;;;5077198;28;20043;-87
2022/11/25 07:03:41;;;;;;;8.10;2.83;;;6.90;99.90;;;;;;5093201;28;20040;-87
2022/11/25 07:06:10;;;;;;;8.73;2.85;;;6.90;99.90;;;;;;5076934;28;20581;-88
2022/11/25 07:08:37;;;;;;;12.13;2.90;;;6.90;99.90;;;;;;5093500;28;20040;-88
2022/11/25 07:11:11;;;;;;;9.07;2.53;;;6.90;99.90;;;;;;5060403;28;20036;-87
2022/11/25 07:13:38;;;;;;;7.28;2.95;;;6.90;99.90;;;;;;5092946;28;20043;-87
2022/11/25 07:16:06;;;;;;;9.80;3.58;;;7.00;99.90;;;;;;5060698;28;20040;-88
2022/11/25 07:18:35;;;;;;;7.22;2.95;;;7.00;99.90;;;;;;5076467;28;20193;-88
2022/11/25 07:21:23;;;;;;;7.43;2.95;;;7.10;99.90;;;;;;5109616;28;20070;-87
2022/11/25 07:23:51;;;;;;;11.07;3.33;;;7.10;99.90;;;;;;5091971;28;20052;-87
2022/11/25 07:26:23;;;;;;;13.13;3.25;;;7.10;99.90;;;;;;5059989;28;20043;-87
2022/11/25 07:28:51;;;;;;;9.90;3.13;;;7.00;99.90;;;;;;5092663;28;20127;-87
2022/11/25 07:31:21;;;;;;;8.90;2.88;;;7.10;99.90;;;;;;5075590;28;20400;-87
2022/11/25 07:33:51;;;;;;;11.35;3.63;;;7.10;99.90;;;;;;5084728;28;20037;-87
2022/11/25 07:36:18;;;;;;;13.05;3.35;;;7.10;99.90;;;;;;5092656;28;20047;-87
2022/11/25 07:38:45;;;;;;;6.45;2.95;;;7.10;99.90;;;;;;5076887;28;20032;-88
2022/11/25 07:41:14;;;;;;;12.07;3.30;;;7.10;99.90;;;;;;5073161;28;20090;-88
2022/11/25 07:43:52;;;;;;;11.98;3.30;;;7.10;99.90;;;;;;5090064;28;20083;-87
2022/11/25 07:46:20;;;;;;;9.60;3.40;;;7.10;99.90;;;;;;5087351;28;20047;-87
2022/11/25 07:48:47;;;;;;;14.80;3.55;;;7.50;99.90;;;;;;5104881;28;20041;-88
2022/11/25 07:51:18;;;;;;;11.13;3.25;;;8.00;99.90;;;;;;5075889;28;20381;-86
2022/11/25 07:53:46;;;;;;;9.38;3.45;;;7.40;99.90;;;;;;5095590;28;20070;-87
2022/11/25 07:56:14;;;;;;;12.77;3.65;;;7.30;99.90;;;;;;5080445;28;20044;-86
2022/11/25 07:58:41;;;;;;;15.18;3.90;;;7.30;99.90;;;;;;5096794;28;20450;-86
2022/11/25 08:01:10;;;;;;;10.98;3.20;;;7.50;99.90;;;;;;5097602;28;20048;-87
2022/11/25 08:03:39;;;;;;;10.68;3.15;;;7.20;99.90;;;;;;5096135;28;20044;-86
2022/11/25 08:06:10;;;;;;;12.55;3.10;;;7.20;99.90;;;;;;5076560;28;20052;-86
2022/11/25 08:08:40;;;;;;;7.55;3.10;;;7.20;99.90;;;;;;5077093;28;20458;-88
2022/11/25 08:11:15;;;;;;;11.38;3.10;;;7.30;99.90;;;;;;5093742;28;20553;-87
2022/11/25 08:13:42;;;;;;;13.40;2.72;;;7.30;99.90;;;;;;5079321;28;20511;-88
2022/11/25 08:16:11;;;;;;;10.93;3.05;;;7.30;99.90;;;;;;5110928;28;20040;-88
2022/11/25 08:18:39;;;;;;;12.23;3.10;;;7.30;99.90;;;;;;5096512;28;20377;-87
2022/11/25 08:21:11;;;;;;;10.90;3.20;;;7.40;99.90;;;;;;5079876;28;20075;-87
2022/11/25 08:23:39;;;;;;;11.00;3.10;;;7.40;99.90;;;;;;5096257;28;20392;-87
2022/11/25 08:26:08;;;;;;;8.55;2.63;;;7.40;99.90;;;;;;5095970;28;20040;-88
2022/11/25 08:28:36;;;;;;;6.65;2.92;;;7.40;99.90;;;;;;5095903;28;20048;-87
2022/11/25 08:31:06;;;;;;;10.30;2.50;;;7.40;99.90;;;;;;5096753;28;20035;-88
2022/11/25 08:33:33;;;;;;;5.22;2.35;;;7.50;99.90;;;;;;5096237;28;20066;-87
2022/11/25 08:36:00;;;;;;;8.40;2.60;;;7.60;99.90;;;;;;5079644;28;20032;-87
2022/11/25 08:38:27;;;;;;;7.35;2.80;;;7.50;99.90;;;;;;5062635;28;20114;-87
2022/11/25 08:40:55;;;;;;;7.90;2.50;;;7.60;99.90;;;;;;5112208;28;20044;-86
2022/11/25 08:43:22;;;;;;;9.40;3.00;;;7.60;99.90;;;;;;5095789;28;20097;-86
2022/11/25 08:45:50;;;;;;;9.10;2.55;;;7.60;99.90;;;;;;5095290;28;20075;-86
2022/11/25 08:48:19;;;;;;;11.10;2.95;;;7.60;99.90;;;;;;5078736;28;20036;-86
2022/11/25 08:50:51;;;;;;;11.25;2.70;;;7.50;99.90;;;;;;5095374;28;20047;-86
2022/11/25 08:53:19;;;;;;;10.55;2.47;;;7.60;99.90;;;;;;5095349;28;20091;-86
2022/11/25 08:55:47;;;;;;;11.23;2.40;;;7.60;99.90;;;;;;5095155;28;20044;-86
2022/11/25 08:58:13;;;;;;;4.85;2.47;;;7.60;99.90;;;;;;5095298;28;20040;-86
2022/11/25 09:00:41;;;;;;;5.90;2.53;;;7.60;99.90;;;;;;5061863;28;20174;-85
2022/11/25 09:03:09;;;;;;;9.50;3.20;;;7.70;99.90;;;;;;5111284;28;20159;-86
2022/11/25 09:05:43;;;;;;;8.75;2.58;;;7.70;99.90;;;;;;5077559;28;20412;-86
2022/11/25 09:08:11;;;;;;;9.85;3.00;;;7.70;99.90;;;;;;5078196;28;20040;-86
2022/11/25 09:10:38;;;;;;;10.73;2.80;;;7.70;99.90;;;;;;5111476;28;20503;-86
2022/11/25 09:13:06;;;;;;;8.18;3.20;;;7.70;99.90;;;;;;5094923;28;20071;-86
2022/11/25 09:15:33;;;;;;;10.98;3.53;;;7.80;99.90;;;;;;5101993;28;20036;-85
2022/11/25 09:18:05;;;;;;;12.57;3.90;;;7.60;99.90;;;;;;5047250;28;20059;-86
2022/11/25 09:20:32;;;;;;;10.43;3.53;;;7.60;99.90;;;;;;5100947;28;20047;-86
2022/11/25 09:23:01;;;;;;;11.57;3.45;;;7.70;99.90;;;;;;5074302;28;20101;-86
2022/11/25 09:25:28;;;;;;;14.63;3.72;;;7.80;99.90;;;;;;5074128;28;20045;-85
2022/11/25 09:27:55;;;;;;;13.15;3.60;;;7.80;99.90;;;;;;5082368;28;20032;-86
2022/11/25 09:30:23;;;;;;;7.38;3.35;;;7.80;99.90;;;;;;5061432;28;20040;-86
2022/11/25 09:32:51;;;;;;;9.50;3.33;;;7.90;99.90;;;;;;5077671;28;20043;-86
2022/11/25 09:35:19;;;;;;;9.90;3.15;;;7.90;99.90;;;;;;5094538;28;20046;-86
2022/11/25 09:37:47;;;;;;;8.63;2.85;;;7.90;99.90;;;;;;5094393;28;20083;-86
2022/11/25 09:40:36;;;;;;;13.23;3.17;;;8.00;99.90;;;;;;5094577;28;20047;-86
2022/11/25 09:46:58;;;;;;;8.55;2.78;;;8.00;99.90;;;;;;5108307;28;20048;-86
2022/11/25 09:49:43;;;;;;;8.82;3.00;;;8.10;99.90;;;;;;5085614;28;20040;-86
2022/11/25 09:52:29;;;;;;;11.40;3.50;;;8.10;99.90;;;;;;5094242;28;20044;-86
2022/11/25 09:55:03;;;;;;;6.78;2.85;;;8.10;99.90;;;;;;5110803;28;20051;-86
2022/11/25 09:58:08;;;;;;;6.25;2.70;;;8.10;99.90;;;;;;5093981;28;20403;-86
2022/11/25 10:00:41;;;;;;;8.82;2.58;;;8.20;99.90;;;;;;5093623;28;20118;-86
2022/11/25 10:03:14;;;;;;;11.18;3.22;;;8.20;99.90;;;;;;5094518;28;20047;-86
2022/11/25 10:06:03;;;;;;;8.77;2.83;;;8.30;99.90;;;;;;5093989;28;20496;-86
2022/11/25 10:08:37;;;;;;;8.93;3.00;;;8.30;99.90;;;;;;5094232;28;20400;-86
2022/11/25 10:11:11;;;;;;;9.20;2.88;;;8.30;99.90;;;;;;5093686;28;20466;-86
2022/11/25 10:13:51;;;;;;;6.05;2.80;;;8.30;99.90;;;;;;5110970;28;20044;-86
2022/11/25 10:16:45;;;;;;;8.18;2.97;;;8.40;99.90;;;;;;5093408;28;20040;-86
2022/11/25 10:19:28;;;;;;;9.05;2.97;;;8.40;99.90;;;;;;5093696;28;20083;-86
2022/11/25 10:21:55;;;;;;;8.65;2.95;;;8.40;99.90;;;;;;5093320;28;20036;-86
2022/11/25 10:24:23;;;;;;;11.45;2.90;;;8.50;99.90;;;;;;5093819;28;20058;-86
2022/11/25 10:26:59;;;;;;;9.07;2.58;;;8.50;99.90;;;;;;5053444;28;20082;-86
2022/11/25 10:29:29;;;;;;;;;;;8.50;99.90;;;;;;5073949;28;20048;-87
2022/11/25 10:32:10;;;;;;;7.55;2.72;;;8.50;99.90;;;;;;5073340;28;19958;-88
2022/11/25 10:34:46;;;;;;;6.50;2.25;;;8.10;99.90;;;;;;5073346;28;20484;-87
2022/11/25 10:37:32;;;;;;;8.73;2.90;;;8.60;99.90;;;;;;5073470;28;20045;-86
2022/11/25 10:39:59;;;;;;;5.57;2.42;;;8.60;99.90;;;;;;5074188;28;20044;-86
2022/11/25 10:42:27;;;;;;;12.20;2.80;;;8.70;99.90;;;;;;5093153;28;20032;-87
2022/11/25 10:44:54;;;;;;;8.07;2.60;;;8.70;99.90;;;;;;5110113;28;20047;-86
2022/11/25 10:47:42;;;;;;;7.68;2.47;;;8.70;99.90;;;;;;5077031;28;20476;-86
2022/11/25 10:50:50;;;;;;;6.65;3.08;;;8.70;99.90;;;;;;5109665;28;20401;-86
2022/11/25 10:53:24;;;;;;;10.95;2.42;;;8.80;99.90;;;;;;5093103;28;20451;-87
2022/11/25 10:56:03;;;;;;;9.95;2.60;;;8.90;99.90;;;;;;5093116;28;20058;-87
2022/11/25 10:58:35;;;;;;;10.75;2.55;;;9.00;99.90;;;;;;5093110;28;20404;-87
2022/11/25 11:01:24;;;;;;;12.10;2.95;;;9.00;99.90;;;;;;5092846;28;20046;-86
2022/11/25 11:04:02;;;;;;;7.13;2.47;;;9.10;99.90;;;;;;5092914;28;20048;-86
2022/11/25 11:06:37;;;;;;;9.82;2.50;;;9.10;99.90;;;;;;5093361;28;20036;-86
2022/11/25 11:09:04;;;;;;;7.78;2.50;;;9.10;99.90;;;;;;5093602;28;20109;-86
2022/11/25 11:11:31;;;;;;;6.28;2.40;;;9.10;99.90;;;;;;5076452;28;20043;-87
2022/11/25 11:14:12;;;;;;;11.48;2.45;;;9.10;99.90;;;;;;5093220;28;20036;-87
2022/11/25 11:16:51;;;;;;;7.88;2.22;;;9.20;99.90;;;;;;5075133;28;20044;-86
2022/11/25 11:19:24;;;;;;;7.05;1.88;;;9.20;99.90;;;;;;5093207;28;20491;-87
2022/11/25 11:21:52;;;;;;;11.27;2.30;;;9.30;99.90;;;;;;5093113;28;20434;-87
2022/11/25 11:24:31;;;;;;;7.90;2.28;;;9.20;99.90;;;;;;5093174;28;20105;-87
2022/11/25 11:27:22;;;;;;;4.57;2.20;;;9.30;99.90;;;;;;5079055;28;20044;-87
2022/11/25 11:30:14;;;;;;;7.53;2.35;;;9.30;99.90;;;;;;5096900;28;20130;-87
2022/11/25 11:32:44;;;;;;;5.95;2.25;;;9.30;99.90;;;;;;5114300;28;20085;-87
2022/11/25 11:35:26;;;;;;;8.48;2.35;;;9.40;99.90;;;;;;5113784;28;20040;-86
2022/11/25 11:37:58;;;;;;;11.27;2.28;;;9.40;99.90;;;;;;5097132;28;20097;-87
2022/11/25 11:40:36;;;;;;;6.03;2.10;;;9.40;99.90;;;;;;5097030;28;20044;-87
2022/11/25 11:43:14;;;;;;;5.93;2.00;;;9.60;99.90;;;;;;5096908;28;20044;-87
2022/11/25 11:45:58;;;;;;;8.57;2.20;;;9.50;99.90;;;;;;5096286;28;20044;-87
2022/11/25 11:48:59;;;;;;;6.78;2.00;;;9.50;99.90;;;;;;5096571;28;20077;-87
2022/11/25 11:51:54;;;;;;;7.47;2.10;;;9.70;99.90;;;;;;5113638;28;20040;-87
2022/11/25 11:54:35;;;;;;;4.13;1.80;;;9.70;99.90;;;;;;5095598;28;20415;-87
2022/11/25 11:57:20;;;;;;;5.50;1.75;;;9.80;99.90;;;;;;5096527;28;20039;-87
2022/11/25 11:59:52;;;;;;;9.73;1.77;;;9.60;99.90;;;;;;5097456;28;20043;-87
2022/11/25 12:02:39;;;;;;;7.80;2.42;;;9.80;99.90;;;;;;5097147;28;20047;-87
2022/11/25 12:05:09;;;;;;;6.70;2.00;;;9.80;99.90;;;;;;5096634;28;20399;-87
2022/11/25 12:07:58;;;;;;;13.48;2.08;;;9.90;99.90;;;;;;5096805;28;20036;-87
2022/11/25 12:10:37;;;;;;;11.43;2.20;;;9.80;99.90;;;;;;5113173;28;20559;-87
2022/11/25 12:14:06;;;;;;;10.52;1.88;;;9.90;99.90;;;;;;5113214;28;20507;-86
2022/11/25 12:16:35;;;;;;;8.02;2.25;;;9.90;99.90;;;;;;5010377;28;20169;-87
2022/11/25 12:19:23;;;;;;;10.00;2.38;;;9.90;99.90;;;;;;5095487;28;20139;-88
2022/11/25 12:22:07;;;;;;;6.18;1.80;;;10.00;99.90;;;;;;5082821;28;20044;-87
2022/11/25 12:25:00;;;;;;;6.90;1.50;;;9.90;99.90;;;;;;5106729;28;20101;-87
2022/11/25 12:27:52;;;;;;;11.68;2.40;;;9.90;99.90;;;;;;5082542;28;20032;-87
2022/11/25 12:30:21;;;;;;;4.18;1.65;;;9.80;99.90;;;;;;5084898;28;20031;-87
2022/11/25 12:33:06;;;;;;;8.35;2.33;;;9.80;99.90;;;;;;5078697;28;20408;-86
2022/11/25 12:35:44;;;;;;;11.70;2.05;;;9.80;99.90;;;;;;5104974;28;20127;-86
2022/11/25 12:38:35;;;;;;;6.72;1.83;;;9.80;99.90;;;;;;5092284;28;20048;-86
2022/11/25 12:41:10;;;;;;;5.18;1.67;;;9.70;99.90;;;;;;5095779;28;20085;-86
2022/11/25 12:43:48;;;;;;;8.98;1.63;;;9.80;99.90;;;;;;5095647;28;20138;-86
2022/11/25 12:46:41;;;;;;;5.90;1.83;;;9.80;99.90;;;;;;5095622;28;20042;-87
2022/11/25 12:49:25;;;;;;;5.75;1.58;;;9.80;99.90;;;;;;5095156;28;20043;-87
2022/11/25 12:51:52;;;;;;;9.38;2.33;;;9.90;99.90;;;;;;5095559;28;20057;-86
2022/11/25 12:54:45;;;;;;;6.03;1.23;;;9.90;99.90;;;;;;5094809;28;20048;-87
2022/11/25 12:57:25;;;;;;;8.85;1.85;;;10.00;99.90;;;;;;5095304;28;20086;-86
2022/11/25 13:00:26;;;;;;;4.57;1.35;;;10.00;99.90;;;;;;5095024;28;20097;-87
2022/11/25 13:03:05;;;;;;;6.63;1.67;;;10.00;99.90;;;;;;5112088;28;20040;-87
2022/11/25 13:06:00;;;;;;;6.13;1.30;;;9.90;99.90;;;;;;5095528;28;20135;-87
2022/11/25 13:08:29;;;;;;;5.97;1.65;;;9.90;99.90;;;;;;5095369;28;20077;-87
2022/11/25 13:11:18;;;;;;;9.95;1.70;;;9.90;99.90;;;;;;5095012;28;20047;-87
2022/11/25 13:14:04;;;;;;;7.57;1.40;;;9.90;99.90;;;;;;5095240;28;20042;-87
2022/11/25 13:16:31;;;;;;;;;;;9.90;99.90;;;;;;5089834;28;20838;-87
2022/11/25 13:18:57;;;;;;;5.28;1.42;;;9.90;99.90;;;;;;5059347;28;19963;-87
2022/11/25 13:21:26;;;;;;;6.38;1.48;;;9.90;99.90;;;;;;5078076;28;20040;-86
2022/11/25 13:23:57;;;;;;;8.75;1.60;;;9.90;99.90;;;;;;5083600;28;20075;-87
2022/11/25 13:26:35;;;;;;;7.75;1.33;;;9.90;99.90;;;;;;5085012;28;20458;-86
2022/11/25 13:29:24;;;;;;;7.07;1.30;;;9.90;99.90;;;;;;5094755;28;20036;-87